sensor_id;sensor_type;location;lat;lon;timestamp;P1;durP1;ratioP1;P2;durP2;ratioP2
64868;SDS011;51349;52.424;10.840;2022-08-01T00:03:11;5.97;;;5.05;;
64868;SDS011;51349;52.424;10.840;2022-08-01T00:08:11;5.20;;;4.82;;
64868;SDS011;51349;52.424;10.840;2022-08-01T00:13:12;5.13;;;4.75;;
64868;SDS011;51349;52.424;10.840;2022-08-01T00:18:12;5.82;;;5.30;;
64868;SDS011;51349;52.424;10.840;2022-08-01T00:23:13;5.28;;;4.97;;
64868;SDS011;51349;52.424;10.840;2022-08-01T00:28:14;6.13;;;5.72;;
64868;SDS011;51349;52.424;10.840;2022-08-01T00:33:14;6.20;;;5.80;;
64868;SDS011;51349;52.424;10.840;2022-08-01T00:38:15;6.35;;;5.75;;
64868;SDS011;51349;52.424;10.840;2022-08-01T00:43:16;6.78;;;6.15;;
64868;SDS011;51349;52.424;10.840;2022-08-01T00:48:16;6.40;;;5.80;;
64868;SDS011;51349;52.424;10.840;2022-08-01T00:53:17;5.22;;;4.93;;
64868;SDS011;51349;52.424;10.840;2022-08-01T00:58:18;5.88;;;5.32;;
64868;SDS011;51349;52.424;10.840;2022-08-01T01:03:18;7.72;;;5.65;;
64868;SDS011;51349;52.424;10.840;2022-08-01T01:08:22;5.55;;;5.15;;
64868;SDS011;51349;52.424;10.840;2022-08-01T01:18:54;6.03;;;5.63;;
64868;SDS011;51349;52.424;10.840;2022-08-01T01:29:23;6.13;;;5.65;;
64868;SDS011;51349;52.424;10.840;2022-08-01T01:34:29;5.95;;;5.53;;
64868;SDS011;51349;52.424;10.840;2022-08-01T01:39:34;6.22;;;5.47;;
64868;SDS011;51349;52.424;10.840;2022-08-01T01:44:37;6.10;;;5.60;;
64868;SDS011;51349;52.424;10.840;2022-08-01T01:49:38;6.95;;;6.35;;
64868;SDS011;51349;52.424;10.840;2022-08-01T01:54:40;7.38;;;6.78;;
64868;SDS011;51349;52.424;10.840;2022-08-01T01:59:45;6.90;;;6.35;;
64868;SDS011;51349;52.424;10.840;2022-08-01T02:04:47;7.28;;;6.68;;
64868;SDS011;51349;52.424;10.840;2022-08-01T02:09:49;6.75;;;5.97;;
64868;SDS011;51349;52.424;10.840;2022-08-01T02:14:52;5.05;;;4.65;;
64868;SDS011;51349;52.424;10.840;2022-08-01T02:19:56;4.90;;;4.50;;
64868;SDS011;51349;52.424;10.840;2022-08-01T02:30:13;4.80;;;4.40;;
64868;SDS011;51349;52.424;10.840;2022-08-01T02:35:19;4.70;;;4.40;;
64868;SDS011;51349;52.424;10.840;2022-08-01T02:40:26;5.05;;;4.65;;
64868;SDS011;51349;52.424;10.840;2022-08-01T02:45:28;6.28;;;5.88;;
64868;SDS011;51349;52.424;10.840;2022-08-01T02:50:30;6.40;;;5.90;;
64868;SDS011;51349;52.424;10.840;2022-08-01T02:55:34;7.05;;;6.45;;
64868;SDS011;51349;52.424;10.840;2022-08-01T03:00:35;7.63;;;7.13;;
64868;SDS011;51349;52.424;10.840;2022-08-01T03:05:36;7.93;;;7.30;;
64868;SDS011;51349;52.424;10.840;2022-08-01T03:10:40;9.00;;;7.78;;
64868;SDS011;51349;52.424;10.840;2022-08-01T03:15:43;7.78;;;7.22;;
64868;SDS011;51349;52.424;10.840;2022-08-01T03:20:44;7.68;;;7.07;;
64868;SDS011;51349;52.424;10.840;2022-08-01T03:25:46;7.35;;;6.70;;
64868;SDS011;51349;52.424;10.840;2022-08-01T03:30:48;7.38;;;6.88;;
64868;SDS011;51349;52.424;10.840;2022-08-01T03:35:52;6.88;;;6.40;;
64868;SDS011;51349;52.424;10.840;2022-08-01T03:40:55;6.85;;;6.25;;
64868;SDS011;51349;52.424;10.840;2022-08-01T03:46:00;6.45;;;6.05;;
64868;SDS011;51349;52.424;10.840;2022-08-01T03:51:07;6.13;;;5.53;;
64868;SDS011;51349;52.424;10.840;2022-08-01T03:56:08;5.72;;;5.25;;
64868;SDS011;51349;52.424;10.840;2022-08-01T04:01:10;4.45;;;4.18;;
64868;SDS011;51349;52.424;10.840;2022-08-01T04:06:11;4.63;;;3.92;;
64868;SDS011;51349;52.424;10.840;2022-08-01T04:11:13;3.45;;;3.25;;
64868;SDS011;51349;52.424;10.840;2022-08-01T04:16:14;4.05;;;3.70;;
64868;SDS011;51349;52.424;10.840;2022-08-01T04:21:15;3.53;;;3.30;;
64868;SDS011;51349;52.424;10.840;2022-08-01T04:26:21;3.60;;;3.40;;
64868;SDS011;51349;52.424;10.840;2022-08-01T04:31:24;3.08;;;2.88;;
64868;SDS011;51349;52.424;10.840;2022-08-01T04:36:26;2.47;;;2.38;;
64868;SDS011;51349;52.424;10.840;2022-08-01T04:41:30;3.28;;;3.08;;
64868;SDS011;51349;52.424;10.840;2022-08-01T04:46:33;3.28;;;2.90;;
64868;SDS011;51349;52.424;10.840;2022-08-01T04:51:37;3.70;;;3.50;;
64868;SDS011;51349;52.424;10.840;2022-08-01T04:56:51;4.00;;;3.80;;
64868;SDS011;51349;52.424;10.840;2022-08-01T05:01:53;4.10;;;3.90;;
64868;SDS011;51349;52.424;10.840;2022-08-01T05:06:54;4.13;;;3.83;;
64868;SDS011;51349;52.424;10.840;2022-08-01T05:11:54;4.50;;;4.20;;
64868;SDS011;51349;52.424;10.840;2022-08-01T05:16:59;4.13;;;3.92;;
64868;SDS011;51349;52.424;10.840;2022-08-01T05:22:05;4.78;;;4.40;;
64868;SDS011;51349;52.424;10.840;2022-08-01T05:27:06;4.57;;;4.28;;
64868;SDS011;51349;52.424;10.840;2022-08-01T05:32:07;4.78;;;4.47;;
64868;SDS011;51349;52.424;10.840;2022-08-01T05:37:09;4.93;;;4.45;;
64868;SDS011;51349;52.424;10.840;2022-08-01T05:42:09;4.93;;;4.47;;
64868;SDS011;51349;52.424;10.840;2022-08-01T05:47:10;4.93;;;4.63;;
64868;SDS011;51349;52.424;10.840;2022-08-01T05:52:11;4.93;;;4.63;;
64868;SDS011;51349;52.424;10.840;2022-08-01T05:57:11;4.85;;;4.55;;
64868;SDS011;51349;52.424;10.840;2022-08-01T06:02:12;5.38;;;4.97;;
64868;SDS011;51349;52.424;10.840;2022-08-01T06:07:13;4.63;;;4.32;;
64868;SDS011;51349;52.424;10.840;2022-08-01T06:12:14;5.00;;;4.63;;
64868;SDS011;51349;52.424;10.840;2022-08-01T06:17:14;5.10;;;4.70;;
64868;SDS011;51349;52.424;10.840;2022-08-01T06:22:15;4.85;;;4.40;;
64868;SDS011;51349;52.424;10.840;2022-08-01T06:27:16;4.13;;;3.55;;
64868;SDS011;51349;52.424;10.840;2022-08-01T06:32:16;3.30;;;3.03;;
64868;SDS011;51349;52.424;10.840;2022-08-01T06:37:17;2.65;;;2.50;;
64868;SDS011;51349;52.424;10.840;2022-08-01T06:42:17;2.38;;;2.28;;
64868;SDS011;51349;52.424;10.840;2022-08-01T06:47:18;2.70;;;2.50;;
64868;SDS011;51349;52.424;10.840;2022-08-01T06:52:19;2.65;;;2.45;;
64868;SDS011;51349;52.424;10.840;2022-08-01T06:57:20;2.88;;;2.67;;
64868;SDS011;51349;52.424;10.840;2022-08-01T07:02:21;2.60;;;2.50;;
64868;SDS011;51349;52.424;10.840;2022-08-01T07:07:22;1.90;;;1.70;;
64868;SDS011;51349;52.424;10.840;2022-08-01T07:12:23;1.67;;;1.30;;
64868;SDS011;51349;52.424;10.840;2022-08-01T07:17:23;6.20;;;2.20;;
64868;SDS011;51349;52.424;10.840;2022-08-01T07:22:24;8.32;;;2.70;;
64868;SDS011;51349;52.424;10.840;2022-08-01T07:27:25;5.32;;;1.90;;
64868;SDS011;51349;52.424;10.840;2022-08-01T07:32:25;5.47;;;2.40;;
64868;SDS011;51349;52.424;10.840;2022-08-01T07:37:26;1.92;;;1.60;;
64868;SDS011;51349;52.424;10.840;2022-08-01T07:42:27;1.85;;;1.40;;
64868;SDS011;51349;52.424;10.840;2022-08-01T07:47:28;1.95;;;1.58;;
64868;SDS011;51349;52.424;10.840;2022-08-01T07:52:28;1.70;;;1.60;;
64868;SDS011;51349;52.424;10.840;2022-08-01T07:57:30;1.40;;;1.40;;
64868;SDS011;51349;52.424;10.840;2022-08-01T08:02:30;2.05;;;1.90;;
64868;SDS011;51349;52.424;10.840;2022-08-01T08:07:31;1.40;;;1.38;;
64868;SDS011;51349;52.424;10.840;2022-08-01T08:12:32;2.05;;;1.30;;
64868;SDS011;51349;52.424;10.840;2022-08-01T08:17:33;1.10;;;1.10;;
64868;SDS011;51349;52.424;10.840;2022-08-01T08:22:34;1.40;;;1.40;;
64868;SDS011;51349;52.424;10.840;2022-08-01T08:27:35;1.40;;;1.40;;
64868;SDS011;51349;52.424;10.840;2022-08-01T08:32:36;1.40;;;1.40;;
64868;SDS011;51349;52.424;10.840;2022-08-01T08:37:37;1.38;;;1.30;;
64868;SDS011;51349;52.424;10.840;2022-08-01T08:42:39;1.30;;;1.30;;
64868;SDS011;51349;52.424;10.840;2022-08-01T08:47:41;1.38;;;1.30;;
64868;SDS011;51349;52.424;10.840;2022-08-01T08:52:44;1.25;;;1.25;;
64868;SDS011;51349;52.424;10.840;2022-08-01T08:57:46;1.30;;;1.30;;
64868;SDS011;51349;52.424;10.840;2022-08-01T09:02:47;1.27;;;1.10;;
64868;SDS011;51349;52.424;10.840;2022-08-01T09:07:55;1.70;;;1.70;;
64868;SDS011;51349;52.424;10.840;2022-08-01T09:13:01;2.28;;;1.63;;
64868;SDS011;51349;52.424;10.840;2022-08-01T09:18:07;1.50;;;1.40;;
64868;SDS011;51349;52.424;10.840;2022-08-01T09:23:09;1.40;;;1.10;;
64868;SDS011;51349;52.424;10.840;2022-08-01T09:28:42;0.80;;;0.80;;
64868;SDS011;51349;52.424;10.840;2022-08-01T09:33:51;1.05;;;0.88;;
64868;SDS011;51349;52.424;10.840;2022-08-01T09:38:54;0.90;;;0.90;;
64868;SDS011;51349;52.424;10.840;2022-08-01T09:43:54;1.33;;;0.80;;
64868;SDS011;51349;52.424;10.840;2022-08-01T09:53:57;0.82;;;0.80;;
64868;SDS011;51349;52.424;10.840;2022-08-01T09:58:59;0.75;;;0.75;;
64868;SDS011;51349;52.424;10.840;2022-08-01T10:04:06;0.75;;;0.60;;
64868;SDS011;51349;52.424;10.840;2022-08-01T10:09:15;0.77;;;0.77;;
64868;SDS011;51349;52.424;10.840;2022-08-01T10:14:26;1.30;;;0.90;;
64868;SDS011;51349;52.424;10.840;2022-08-01T10:19:28;1.13;;;0.70;;
64868;SDS011;51349;52.424;10.840;2022-08-01T10:24:30;0.63;;;0.63;;
64868;SDS011;51349;52.424;10.840;2022-08-01T10:29:33;1.95;;;0.73;;
64868;SDS011;51349;52.424;10.840;2022-08-01T10:34:55;0.95;;;0.95;;
64868;SDS011;51349;52.424;10.840;2022-08-01T10:39:59;1.27;;;1.10;;
64868;SDS011;51349;52.424;10.840;2022-08-01T10:45:00;1.20;;;0.80;;
64868;SDS011;51349;52.424;10.840;2022-08-01T10:50:44;2.70;;;0.80;;
64868;SDS011;51349;52.424;10.840;2022-08-01T10:55:28;2.40;;;0.77;;
64868;SDS011;51349;52.424;10.840;2022-08-01T11:00:44;1.85;;;0.80;;
64868;SDS011;51349;52.424;10.840;2022-08-01T11:05:45;1.67;;;0.70;;
64868;SDS011;51349;52.424;10.840;2022-08-01T11:10:59;0.93;;;0.90;;
64868;SDS011;51349;52.424;10.840;2022-08-01T11:16:24;0.80;;;0.80;;
64868;SDS011;51349;52.424;10.840;2022-08-01T11:32:25;0.63;;;0.63;;
64868;SDS011;51349;52.424;10.840;2022-08-01T11:37:27;0.90;;;0.90;;
64868;SDS011;51349;52.424;10.840;2022-08-01T11:42:29;1.30;;;1.10;;
64868;SDS011;51349;52.424;10.840;2022-08-01T11:47:45;1.33;;;1.20;;
64868;SDS011;51349;52.424;10.840;2022-08-01T11:52:48;1.17;;;1.05;;
64868;SDS011;51349;52.424;10.840;2022-08-01T11:58:01;1.00;;;1.00;;
64868;SDS011;51349;52.424;10.840;2022-08-01T12:03:07;1.20;;;1.10;;
64868;SDS011;51349;52.424;10.840;2022-08-01T12:08:08;1.20;;;1.20;;
64868;SDS011;51349;52.424;10.840;2022-08-01T12:13:09;1.35;;;1.08;;
64868;SDS011;51349;52.424;10.840;2022-08-01T12:18:10;1.25;;;1.00;;
64868;SDS011;51349;52.424;10.840;2022-08-01T12:23:12;2.10;;;1.15;;
64868;SDS011;51349;52.424;10.840;2022-08-01T12:28:15;3.72;;;1.40;;
64868;SDS011;51349;52.424;10.840;2022-08-01T12:33:18;1.25;;;1.15;;
64868;SDS011;51349;52.424;10.840;2022-08-01T12:38:21;2.58;;;1.50;;
64868;SDS011;51349;52.424;10.840;2022-08-01T12:43:23;1.58;;;1.40;;
64868;SDS011;51349;52.424;10.840;2022-08-01T12:48:26;1.17;;;1.17;;
64868;SDS011;51349;52.424;10.840;2022-08-01T12:53:27;1.40;;;1.30;;
64868;SDS011;51349;52.424;10.840;2022-08-01T12:58:32;1.35;;;1.10;;
64868;SDS011;51349;52.424;10.840;2022-08-01T13:03:33;1.20;;;1.20;;
64868;SDS011;51349;52.424;10.840;2022-08-01T13:08:34;1.33;;;1.23;;
64868;SDS011;51349;52.424;10.840;2022-08-01T13:13:41;1.50;;;1.40;;
64868;SDS011;51349;52.424;10.840;2022-08-01T13:18:47;2.35;;;1.50;;
64868;SDS011;51349;52.424;10.840;2022-08-01T13:29:13;1.75;;;1.27;;
64868;SDS011;51349;52.424;10.840;2022-08-01T13:34:30;1.88;;;1.30;;
64868;SDS011;51349;52.424;10.840;2022-08-01T13:39:32;2.25;;;1.40;;
64868;SDS011;51349;52.424;10.840;2022-08-01T13:44:42;2.60;;;1.48;;
64868;SDS011;51349;52.424;10.840;2022-08-01T13:49:46;1.40;;;1.30;;
64868;SDS011;51349;52.424;10.840;2022-08-01T13:54:47;1.50;;;1.40;;
64868;SDS011;51349;52.424;10.840;2022-08-01T13:59:47;3.53;;;1.40;;
64868;SDS011;51349;52.424;10.840;2022-08-01T14:04:48;1.27;;;1.17;;
64868;SDS011;51349;52.424;10.840;2022-08-01T14:09:49;2.20;;;1.40;;
64868;SDS011;51349;52.424;10.840;2022-08-01T14:14:49;1.63;;;1.50;;
64868;SDS011;51349;52.424;10.840;2022-08-01T14:19:50;2.75;;;2.55;;
64868;SDS011;51349;52.424;10.840;2022-08-01T14:24:51;2.25;;;1.50;;
64868;SDS011;51349;52.424;10.840;2022-08-01T14:29:51;2.55;;;1.60;;
64868;SDS011;51349;52.424;10.840;2022-08-01T14:34:52;7.13;;;1.92;;
64868;SDS011;51349;52.424;10.840;2022-08-01T14:39:52;1.88;;;1.60;;
64868;SDS011;51349;52.424;10.840;2022-08-01T14:44:53;2.58;;;1.65;;
64868;SDS011;51349;52.424;10.840;2022-08-01T14:49:54;1.70;;;1.60;;
64868;SDS011;51349;52.424;10.840;2022-08-01T14:54:54;2.53;;;1.70;;
64868;SDS011;51349;52.424;10.840;2022-08-01T14:59:55;1.83;;;1.73;;
64868;SDS011;51349;52.424;10.840;2022-08-01T15:04:55;2.08;;;1.50;;
64868;SDS011;51349;52.424;10.840;2022-08-01T15:09:56;2.05;;;1.60;;
64868;SDS011;51349;52.424;10.840;2022-08-01T15:14:57;3.90;;;1.80;;
64868;SDS011;51349;52.424;10.840;2022-08-01T15:19:58;3.00;;;1.90;;
64868;SDS011;51349;52.424;10.840;2022-08-01T15:25:00;3.05;;;2.08;;
64868;SDS011;51349;52.424;10.840;2022-08-01T15:30:02;2.90;;;1.88;;
64868;SDS011;51349;52.424;10.840;2022-08-01T15:35:04;2.55;;;1.70;;
64868;SDS011;51349;52.424;10.840;2022-08-01T15:40:06;2.65;;;1.60;;
64868;SDS011;51349;52.424;10.840;2022-08-01T15:45:07;3.33;;;1.85;;
64868;SDS011;51349;52.424;10.840;2022-08-01T15:50:09;3.25;;;1.80;;
64868;SDS011;51349;52.424;10.840;2022-08-01T15:55:10;2.58;;;1.90;;
64868;SDS011;51349;52.424;10.840;2022-08-01T16:00:11;2.10;;;1.90;;
64868;SDS011;51349;52.424;10.840;2022-08-01T16:05:12;3.65;;;2.28;;
64868;SDS011;51349;52.424;10.840;2022-08-01T16:10:13;4.45;;;1.90;;
64868;SDS011;51349;52.424;10.840;2022-08-01T16:15:14;1.77;;;1.67;;
64868;SDS011;51349;52.424;10.840;2022-08-01T16:20:14;4.88;;;1.95;;
64868;SDS011;51349;52.424;10.840;2022-08-01T16:25:15;2.55;;;1.85;;
64868;SDS011;51349;52.424;10.840;2022-08-01T16:30:16;2.65;;;1.80;;
64868;SDS011;51349;52.424;10.840;2022-08-01T16:35:17;2.00;;;1.80;;
64868;SDS011;51349;52.424;10.840;2022-08-01T16:40:18;3.13;;;1.67;;
64868;SDS011;51349;52.424;10.840;2022-08-01T16:45:18;4.15;;;1.83;;
64868;SDS011;51349;52.424;10.840;2022-08-01T16:50:20;5.10;;;2.20;;
64868;SDS011;51349;52.424;10.840;2022-08-01T16:55:20;5.47;;;2.20;;
64868;SDS011;51349;52.424;10.840;2022-08-01T17:00:22;3.88;;;1.83;;
64868;SDS011;51349;52.424;10.840;2022-08-01T17:05:25;4.22;;;1.80;;
64868;SDS011;51349;52.424;10.840;2022-08-01T17:10:27;5.32;;;2.10;;
64868;SDS011;51349;52.424;10.840;2022-08-01T17:15:28;3.10;;;1.80;;
64868;SDS011;51349;52.424;10.840;2022-08-01T17:20:29;3.47;;;2.08;;
64868;SDS011;51349;52.424;10.840;2022-08-01T17:25:29;2.80;;;1.83;;
64868;SDS011;51349;52.424;10.840;2022-08-01T17:30:30;4.05;;;1.85;;
64868;SDS011;51349;52.424;10.840;2022-08-01T17:35:31;2.65;;;1.88;;
64868;SDS011;51349;52.424;10.840;2022-08-01T17:40:32;3.03;;;1.80;;
64868;SDS011;51349;52.424;10.840;2022-08-01T17:45:32;5.63;;;1.80;;
64868;SDS011;51349;52.424;10.840;2022-08-01T17:50:33;6.82;;;1.98;;
64868;SDS011;51349;52.424;10.840;2022-08-01T17:55:33;2.72;;;1.88;;
64868;SDS011;51349;52.424;10.840;2022-08-01T18:00:35;2.38;;;1.70;;
64868;SDS011;51349;52.424;10.840;2022-08-01T18:05:37;4.10;;;1.70;;
64868;SDS011;51349;52.424;10.840;2022-08-01T18:10:38;3.03;;;1.83;;
64868;SDS011;51349;52.424;10.840;2022-08-01T18:15:38;2.15;;;1.50;;
64868;SDS011;51349;52.424;10.840;2022-08-01T18:20:44;2.92;;;1.73;;
64868;SDS011;51349;52.424;10.840;2022-08-01T18:25:48;3.28;;;1.58;;
64868;SDS011;51349;52.424;10.840;2022-08-01T18:30:48;3.08;;;1.52;;
64868;SDS011;51349;52.424;10.840;2022-08-01T18:35:49;2.38;;;1.65;;
64868;SDS011;51349;52.424;10.840;2022-08-01T18:40:50;2.28;;;1.60;;
64868;SDS011;51349;52.424;10.840;2022-08-01T18:45:51;4.65;;;2.03;;
64868;SDS011;51349;52.424;10.840;2022-08-01T18:50:51;4.43;;;1.60;;
64868;SDS011;51349;52.424;10.840;2022-08-01T18:55:52;3.45;;;1.60;;
64868;SDS011;51349;52.424;10.840;2022-08-01T19:00:53;5.40;;;1.80;;
64868;SDS011;51349;52.424;10.840;2022-08-01T19:05:54;4.25;;;1.92;;
64868;SDS011;51349;52.424;10.840;2022-08-01T19:10:54;4.75;;;1.70;;
64868;SDS011;51349;52.424;10.840;2022-08-01T19:15:55;1.77;;;1.50;;
64868;SDS011;51349;52.424;10.840;2022-08-01T19:20:56;3.60;;;1.60;;
64868;SDS011;51349;52.424;10.840;2022-08-01T19:25:57;4.35;;;1.75;;
64868;SDS011;51349;52.424;10.840;2022-08-01T19:30:58;2.95;;;1.95;;
64868;SDS011;51349;52.424;10.840;2022-08-01T19:36:01;2.67;;;1.77;;
64868;SDS011;51349;52.424;10.840;2022-08-01T19:41:02;4.53;;;1.80;;
64868;SDS011;51349;52.424;10.840;2022-08-01T19:46:03;4.93;;;2.05;;
64868;SDS011;51349;52.424;10.840;2022-08-01T19:51:05;2.05;;;1.50;;
64868;SDS011;51349;52.424;10.840;2022-08-01T19:56:11;2.47;;;1.80;;
64868;SDS011;51349;52.424;10.840;2022-08-01T20:01:13;4.75;;;1.80;;
64868;SDS011;51349;52.424;10.840;2022-08-01T20:06:14;4.15;;;1.92;;
64868;SDS011;51349;52.424;10.840;2022-08-01T20:11:15;3.63;;;1.80;;
64868;SDS011;51349;52.424;10.840;2022-08-01T20:16:16;2.97;;;1.70;;
64868;SDS011;51349;52.424;10.840;2022-08-01T20:21:17;3.63;;;2.00;;
64868;SDS011;51349;52.424;10.840;2022-08-01T20:26:18;3.38;;;1.90;;
64868;SDS011;51349;52.424;10.840;2022-08-01T20:31:21;3.30;;;1.67;;
64868;SDS011;51349;52.424;10.840;2022-08-01T20:36:26;3.28;;;1.80;;
64868;SDS011;51349;52.424;10.840;2022-08-01T20:41:27;2.05;;;1.55;;
64868;SDS011;51349;52.424;10.840;2022-08-01T20:46:28;2.78;;;1.90;;
64868;SDS011;51349;52.424;10.840;2022-08-01T20:51:29;3.10;;;1.63;;
64868;SDS011;51349;52.424;10.840;2022-08-01T20:56:50;2.90;;;1.92;;
64868;SDS011;51349;52.424;10.840;2022-08-01T21:12:23;3.42;;;1.95;;
64868;SDS011;51349;52.424;10.840;2022-08-01T21:17:37;3.92;;;2.00;;
64868;SDS011;51349;52.424;10.840;2022-08-01T21:23:08;3.95;;;1.95;;
64868;SDS011;51349;52.424;10.840;2022-08-01T21:28:27;2.83;;;1.90;;
64868;SDS011;51349;52.424;10.840;2022-08-01T21:33:28;4.18;;;2.10;;
64868;SDS011;51349;52.424;10.840;2022-08-01T21:38:29;3.03;;;1.90;;
64868;SDS011;51349;52.424;10.840;2022-08-01T21:43:31;3.67;;;2.25;;
64868;SDS011;51349;52.424;10.840;2022-08-01T21:48:33;2.30;;;2.10;;
64868;SDS011;51349;52.424;10.840;2022-08-01T21:53:40;4.70;;;2.00;;
64868;SDS011;51349;52.424;10.840;2022-08-01T22:04:26;2.60;;;1.88;;
64868;SDS011;51349;52.424;10.840;2022-08-01T22:09:43;3.45;;;1.73;;
64868;SDS011;51349;52.424;10.840;2022-08-01T22:14:47;4.80;;;2.17;;
64868;SDS011;51349;52.424;10.840;2022-08-01T22:19:52;3.88;;;2.05;;
64868;SDS011;51349;52.424;10.840;2022-08-01T22:24:54;3.38;;;2.10;;
64868;SDS011;51349;52.424;10.840;2022-08-01T22:34:58;2.72;;;2.00;;
64868;SDS011;51349;52.424;10.840;2022-08-01T22:40:00;4.55;;;2.05;;
64868;SDS011;51349;52.424;10.840;2022-08-01T22:45:05;4.20;;;2.25;;
64868;SDS011;51349;52.424;10.840;2022-08-01T22:50:14;4.28;;;2.10;;
64868;SDS011;51349;52.424;10.840;2022-08-01T22:55:18;4.35;;;2.15;;
64868;SDS011;51349;52.424;10.840;2022-08-01T23:00:20;4.72;;;2.20;;
64868;SDS011;51349;52.424;10.840;2022-08-01T23:05:22;8.20;;;3.75;;
64868;SDS011;51349;52.424;10.840;2022-08-01T23:10:24;6.35;;;2.63;;
64868;SDS011;51349;52.424;10.840;2022-08-01T23:15:25;3.35;;;2.42;;
64868;SDS011;51349;52.424;10.840;2022-08-01T23:20:27;5.30;;;2.35;;
64868;SDS011;51349;52.424;10.840;2022-08-01T23:25:28;4.80;;;2.05;;
64868;SDS011;51349;52.424;10.840;2022-08-01T23:30:33;4.97;;;2.00;;
64868;SDS011;51349;52.424;10.840;2022-08-01T23:35:34;3.10;;;2.22;;
64868;SDS011;51349;52.424;10.840;2022-08-01T23:40:35;3.40;;;2.40;;
64868;SDS011;51349;52.424;10.840;2022-08-01T23:45:36;2.70;;;2.17;;
64868;SDS011;51349;52.424;10.840;2022-08-01T23:50:37;3.63;;;2.10;;
64868;SDS011;51349;52.424;10.840;2022-08-01T23:55:38;2.83;;;2.38;;
